Oupeye, Belgium
Current Conditions -  °F | °C
As of 6:50 PM on Wednesday 28 Jan 2015 (Local Time) from EBLG Reporting Station
Rain Showers Rain Showers  
Wind Chill: 28°   Ceiling: 1700
Heat Index: 36°   Visibility: 6mi
Dew Point: 32°   Wind: 12mph
Humidity: 87%   Direction: 260°W
Pressure: 29.53"   Gusts: NA
Location:  50.71°N, 5.65°E
Report Text: EBLG 281750Z 26010KT 9999 -SHRA FEW009 BKN017 02/00 Q1000 BECMG NSW
Loading
Personal Weather Stations






























Interactive Weather Map New forecast layout! Learn more

10-Day Weather Forecast

Advertisements
Track Severe Weather on mobile